Time;durP1;ratioP1;P1;durP2;ratioP2;P2;SDS_P1;SDS_P2;PMS_P1;PMS_P2;Temp;Humidity;BMP_temperature;BMP_pressure;BME280_temperature;BME280_humidity;BME280_pressure;Samples;Min_cycle;Max_cycle;Signal;HPM_P1;HPM_P2
2023/09/11 00:02:23;;;;;;;5.07;4.67;;;17.10;99.90;;;;;;5065974;28;20487;-76
2023/09/11 00:04:51;;;;;;;8.63;6.63;;;17.00;99.90;;;;;;5052458;28;20516;-78
2023/09/11 00:07:18;;;;;;;6.30;5.73;;;16.90;99.90;;;;;;5061395;28;20518;-74
2023/09/11 00:09:45;;;;;;;6.13;5.60;;;16.90;99.90;;;;;;5057033;28;20464;-77
2023/09/11 00:12:12;;;;;;;7.40;6.80;;;17.00;99.90;;;;;;5057753;28;20454;-78
2023/09/11 00:14:39;;;;;;;5.10;4.70;;;16.90;99.90;;;;;;5065596;28;20504;-76
2023/09/11 00:17:06;;;;;;;6.43;5.83;;;16.90;99.90;;;;;;5061014;28;20447;-76
2023/09/11 00:19:33;;;;;;;5.60;5.10;;;16.80;99.90;;;;;;5058191;28;20536;-76
2023/09/11 00:22:02;;;;;;;6.50;5.90;;;16.90;99.90;;;;;;5055169;28;20498;-79
2023/09/11 00:24:29;;;;;;;6.23;5.73;;;16.90;99.90;;;;;;5054363;28;20939;-79
2023/09/11 00:26:56;;;;;;;5.97;5.50;;;16.80;99.90;;;;;;5059128;28;20516;-76
2023/09/11 00:29:23;;;;;;;7.20;6.50;;;16.80;99.90;;;;;;5063760;28;21045;-77
2023/09/11 00:31:50;;;;;;;6.03;5.53;;;16.80;99.90;;;;;;5060510;28;20480;-79
2023/09/11 00:34:17;;;;;;;5.87;5.37;;;16.70;99.90;;;;;;5061184;28;20463;-77
2023/09/11 00:36:44;;;;;;;6.07;5.57;;;16.70;99.90;;;;;;5066161;28;20459;-76
2023/09/11 00:39:12;;;;;;;5.77;5.27;;;16.70;99.90;;;;;;5050982;28;20448;-76
2023/09/11 00:41:40;;;;;;;5.17;4.73;;;16.70;99.90;;;;;;5050139;28;20452;-80
2023/09/11 00:44:07;;;;;;;6.60;5.43;;;16.60;99.90;;;;;;5054450;28;20542;-76
2023/09/11 00:46:35;;;;;;;7.30;6.70;;;16.60;99.90;;;;;;5060151;28;20544;-77
2023/09/11 00:49:02;;;;;;;5.80;5.23;;;16.60;99.90;;;;;;5056875;28;20996;-77
2023/09/11 00:51:29;;;;;;;6.23;5.70;;;16.60;99.90;;;;;;5060212;28;20439;-79
2023/09/11 00:53:56;;;;;;;7.27;6.57;;;16.60;99.90;;;;;;5060328;28;20476;-77
2023/09/11 00:56:25;;;;;;;6.73;6.10;;;16.50;99.90;;;;;;5064892;28;20459;-79
2023/09/11 00:58:52;;;;;;;14.73;6.20;;;16.50;99.90;;;;;;5059256;28;20468;-74
2023/09/11 01:01:22;;;;;;;5.43;5.03;;;16.50;99.90;;;;;;5059171;28;20476;-76
2023/09/11 01:03:49;;;;;;;6.03;5.53;;;16.40;99.90;;;;;;5065260;28;20465;-77
2023/09/11 01:06:17;;;;;;;5.73;5.27;;;16.40;99.90;;;;;;5055946;28;20484;-76
2023/09/11 01:08:44;;;;;;;5.53;4.97;;;16.30;99.90;;;;;;5071467;28;20989;-74
2023/09/11 01:11:11;;;;;;;7.00;6.30;;;16.30;99.90;;;;;;5064604;28;20455;-76
2023/09/11 01:13:39;;;;;;;6.13;5.63;;;16.20;99.90;;;;;;5059756;28;20502;-77
2023/09/11 01:16:12;;;;;;;7.20;6.60;;;16.20;99.90;;;;;;5059928;28;20537;-76
2023/09/11 01:18:47;;;;;;;6.70;5.33;;;16.30;99.90;;;;;;5064594;28;20470;-76
2023/09/11 01:21:44;;;;;;;5.83;5.30;;;16.20;99.90;;;;;;5063964;28;20501;-76
2023/09/11 01:24:32;;;;;;;6.40;5.90;;;16.20;99.90;;;;;;5056963;28;20842;-76
2023/09/11 01:27:22;;;;;;;6.30;5.80;;;16.20;99.90;;;;;;5061882;28;20930;-79
2023/09/11 01:29:52;;;;;;;8.60;6.30;;;16.30;99.90;;;;;;5060875;28;20915;-76
2023/09/11 01:32:21;;;;;;;6.93;6.10;;;16.40;99.90;;;;;;5055851;28;20464;-76
2023/09/11 01:34:48;;;;;;;7.47;6.73;;;16.40;99.90;;;;;;5064679;28;20448;-78
2023/09/11 01:37:15;;;;;;;6.63;6.00;;;16.40;99.90;;;;;;5067128;28;20448;-79
2023/09/11 01:39:42;;;;;;;7.03;6.43;;;16.30;99.90;;;;;;5060135;28;20518;-76
2023/09/11 01:42:13;;;;;;;7.13;6.50;;;16.30;99.90;;;;;;5065709;28;20490;-76
2023/09/11 01:44:44;;;;;;;6.17;5.60;;;16.30;99.90;;;;;;5067760;28;20522;-76
2023/09/11 01:47:15;;;;;;;6.87;6.17;;;16.20;99.90;;;;;;5059269;28;20487;-78
2023/09/11 01:49:44;;;;;;;6.40;5.90;;;16.20;99.90;;;;;;5060632;28;20463;-76
2023/09/11 01:52:12;;;;;;;5.00;4.60;;;16.20;99.90;;;;;;5066270;28;20546;-76
2023/09/11 01:54:39;;;;;;;6.00;5.50;;;16.20;99.90;;;;;;5062664;28;20530;-77
2023/09/11 01:57:06;;;;;;;6.90;6.30;;;16.20;99.90;;;;;;5062866;28;20483;-76
2023/09/11 01:59:34;;;;;;;5.90;5.10;;;16.20;99.90;;;;;;5064553;28;20452;-76
2023/09/11 02:02:00;;;;;;;7.33;6.73;;;16.20;99.90;;;;;;5066975;28;21076;-76
2023/09/11 02:04:29;;;;;;;6.50;5.97;;;16.20;99.90;;;;;;5066083;28;20547;-80
2023/09/11 02:06:56;;;;;;;8.07;6.40;;;16.20;99.90;;;;;;5067067;28;20519;-76
2023/09/11 02:09:24;;;;;;;7.50;6.80;;;16.20;99.90;;;;;;5065006;28;20552;-77
2023/09/11 02:11:51;;;;;;;6.40;5.87;;;16.10;99.90;;;;;;5068945;28;20444;-76
2023/09/11 02:14:18;;;;;;;8.70;7.40;;;16.00;99.90;;;;;;5064512;28;20499;-76
2023/09/11 02:16:44;;;;;;;7.70;6.70;;;16.10;99.90;;;;;;5055893;28;20484;-76
2023/09/11 02:19:11;;;;;;;7.30;6.70;;;16.20;99.90;;;;;;5058623;28;20502;-76
2023/09/11 02:21:40;;;;;;;5.90;5.43;;;16.10;99.90;;;;;;5053632;28;20464;-77
2023/09/11 02:24:07;;;;;;;8.70;6.80;;;16.10;99.90;;;;;;5059312;28;20568;-75
2023/09/11 02:26:34;;;;;;;8.03;7.33;;;16.00;99.90;;;;;;5056884;28;20514;-77
2023/09/11 02:29:01;;;;;;;6.93;6.30;;;15.90;99.90;;;;;;5060685;28;21107;-77
2023/09/11 02:31:28;;;;;;;8.07;7.43;;;15.90;99.90;;;;;;5076188;28;20447;-76
2023/09/11 02:33:55;;;;;;;8.63;7.90;;;15.80;99.90;;;;;;5064041;28;20950;-76
2023/09/11 02:36:21;;;;;;;6.13;5.60;;;15.80;99.90;;;;;;5062040;28;20501;-77
2023/09/11 02:38:50;;;;;;;6.40;5.90;;;15.80;99.90;;;;;;5059534;28;20452;-77
2023/09/11 02:41:17;;;;;;;6.60;5.97;;;15.80;99.90;;;;;;5064103;28;21054;-77
2023/09/11 02:43:44;;;;;;;6.40;5.80;;;15.70;99.90;;;;;;5066441;28;20495;-77
2023/09/11 02:46:11;;;;;;;7.27;6.60;;;15.70;99.90;;;;;;5055726;28;20529;-81
2023/09/11 02:48:38;;;;;;;7.77;7.00;;;15.80;99.90;;;;;;5058966;28;20895;-77
2023/09/11 02:51:05;;;;;;;7.03;6.07;;;15.80;99.90;;;;;;5066343;28;20542;-77
2023/09/11 02:53:32;;;;;;;7.33;6.60;;;15.90;99.90;;;;;;5057278;28;20471;-75
2023/09/11 02:56:00;;;;;;;6.80;6.23;;;15.80;99.90;;;;;;5076563;28;20457;-77
2023/09/11 02:58:27;;;;;;;6.70;6.20;;;15.80;99.90;;;;;;5068664;28;20880;-76
2023/09/11 03:00:54;;;;;;;8.73;7.80;;;15.80;99.90;;;;;;5068603;28;20966;-81
2023/09/11 03:03:21;;;;;;;7.03;6.43;;;16.00;99.90;;;;;;5065387;28;20490;-78
2023/09/11 03:05:56;;;;;;;8.43;7.63;;;16.00;99.90;;;;;;5059535;28;20464;-76
2023/09/11 03:08:23;;;;;;;8.37;7.57;;;16.00;99.90;;;;;;5067451;28;20594;-78
2023/09/11 03:10:50;;;;;;;7.77;6.97;;;15.90;99.90;;;;;;5052870;28;20540;-76
2023/09/11 03:13:19;;;;;;;7.67;6.97;;;16.00;99.90;;;;;;5067810;28;20570;-77
2023/09/11 03:15:46;;;;;;;8.53;7.63;;;16.00;99.90;;;;;;5064854;28;20456;-76
2023/09/11 03:18:13;;;;;;;6.73;6.13;;;16.00;99.90;;;;;;5065066;28;20498;-77
2023/09/11 03:20:40;;;;;;;7.47;6.87;;;15.90;99.90;;;;;;5057469;28;20557;-78
2023/09/11 03:23:07;;;;;;;8.47;7.60;;;15.90;99.90;;;;;;5059452;28;20514;-77
2023/09/11 03:25:35;;;;;;;8.87;7.97;;;16.00;99.90;;;;;;5064815;28;20845;-78
2023/09/11 03:28:02;;;;;;;6.93;6.23;;;16.00;99.90;;;;;;5069828;28;20565;-76
2023/09/11 03:30:31;;;;;;;9.70;6.87;;;16.10;99.90;;;;;;5061818;28;20547;-75
2023/09/11 03:32:58;;;;;;;11.83;6.40;;;16.20;99.90;;;;;;5059844;28;20443;-75
2023/09/11 03:35:25;;;;;;;8.47;7.30;;;16.20;99.90;;;;;;5063733;28;20564;-75
2023/09/11 03:37:52;;;;;;;6.53;6.03;;;16.20;99.90;;;;;;5067233;28;20524;-75
2023/09/11 03:40:20;;;;;;;7.93;7.33;;;16.20;99.90;;;;;;5066881;28;20452;-79
2023/09/11 03:42:47;;;;;;;7.43;6.40;;;16.10;99.90;;;;;;5063768;28;20464;-77
2023/09/11 03:45:14;;;;;;;7.97;7.23;;;16.00;99.90;;;;;;5059758;28;20557;-75
2023/09/11 03:47:43;;;;;;;6.87;6.27;;;15.90;99.90;;;;;;5058232;28;20480;-75
2023/09/11 03:50:11;;;;;;;7.53;6.57;;;15.80;99.90;;;;;;5055308;28;20997;-75
2023/09/11 03:52:37;;;;;;;7.57;6.87;;;15.70;99.90;;;;;;5066771;28;20569;-76
2023/09/11 03:55:05;;;;;;;5.50;5.03;;;15.70;99.90;;;;;;5061661;28;21032;-81
2023/09/11 03:57:32;;;;;;;8.00;7.20;;;15.70;99.90;;;;;;5061652;28;20492;-76
2023/09/11 03:59:59;;;;;;;8.90;6.43;;;15.80;99.90;;;;;;5052445;28;21882;-76
2023/09/11 04:02:26;;;;;;;8.23;7.23;;;15.80;99.90;;;;;;5056560;28;20545;-81
2023/09/11 04:04:54;;;;;;;7.67;6.80;;;15.80;99.90;;;;;;5062045;28;20496;-78
2023/09/11 04:07:21;;;;;;;7.13;6.47;;;15.70;99.90;;;;;;5060713;28;20474;-75
2023/09/11 04:09:48;;;;;;;7.63;6.97;;;15.70;99.90;;;;;;5064987;28;20463;-75
2023/09/11 04:12:16;;;;;;;6.50;5.87;;;15.60;99.90;;;;;;5062993;28;20539;-77
2023/09/11 04:14:43;;;;;;;7.27;6.57;;;15.60;99.90;;;;;;5062979;28;20487;-76
2023/09/11 04:17:11;;;;;;;5.70;5.23;;;15.50;99.90;;;;;;5058922;28;20517;-76
2023/09/11 04:19:38;;;;;;;7.03;6.33;;;15.50;99.90;;;;;;5067635;28;20501;-76
2023/09/11 04:22:07;;;;;;;8.50;7.70;;;15.50;99.90;;;;;;5070229;28;20456;-76
2023/09/11 04:24:34;;;;;;;6.80;5.90;;;15.50;99.90;;;;;;5061924;28;20945;-76
2023/09/11 04:27:01;;;;;;;7.97;7.20;;;15.60;99.90;;;;;;5059173;28;20935;-76
2023/09/11 04:29:31;;;;;;;6.87;5.87;;;15.60;99.90;;;;;;5057630;28;20852;-75
2023/09/11 04:31:57;;;;;;;7.37;6.77;;;15.60;99.90;;;;;;5054625;28;20517;-76
2023/09/11 04:34:25;;;;;;;7.80;7.00;;;15.50;99.90;;;;;;5057049;28;20495;-76
2023/09/11 04:36:52;;;;;;;8.20;5.50;;;15.50;99.90;;;;;;5064952;28;20900;-78
2023/09/11 04:39:23;;;;;;;7.20;6.60;;;15.50;99.90;;;;;;5064096;28;20536;-75
2023/09/11 04:41:50;;;;;;;6.70;6.00;;;15.50;99.90;;;;;;5066337;28;20904;-76
2023/09/11 04:44:17;;;;;;;7.57;6.87;;;15.40;99.90;;;;;;5062820;28;20495;-76
2023/09/11 04:46:44;;;;;;;10.17;7.73;;;15.40;99.90;;;;;;5066043;28;20498;-77
2023/09/11 04:49:11;;;;;;;6.87;6.27;;;15.40;99.90;;;;;;5053015;28;20587;-80
2023/09/11 04:51:38;;;;;;;8.10;7.43;;;15.40;99.90;;;;;;5061782;28;20557;-76
2023/09/11 04:54:05;;;;;;;10.77;6.60;;;15.50;99.90;;;;;;5074964;28;20919;-78
2023/09/11 04:56:34;;;;;;;8.23;7.47;;;15.50;99.90;;;;;;5057023;28;20495;-77
2023/09/11 04:59:01;;;;;;;6.93;6.23;;;15.50;99.90;;;;;;5066138;28;20521;-75
2023/09/11 05:01:27;;;;;;;9.27;8.00;;;15.50;99.90;;;;;;5061769;28;20476;-75
2023/09/11 05:03:54;;;;;;;8.70;7.80;;;15.60;99.90;;;;;;5071752;28;20471;-74
2023/09/11 05:06:21;;;;;;;8.27;7.47;;;15.60;99.90;;;;;;5065039;28;20979;-79
2023/09/11 05:08:49;;;;;;;7.30;6.70;;;15.70;99.90;;;;;;5062390;28;20519;-75
2023/09/11 05:11:16;;;;;;;6.80;6.30;;;15.90;99.90;;;;;;5068822;28;20448;-76
2023/09/11 05:13:44;;;;;;;7.40;6.17;;;15.90;99.90;;;;;;5064297;28;20452;-74
2023/09/11 05:16:12;;;;;;;6.60;6.10;;;16.00;99.90;;;;;;5066594;28;20487;-77
2023/09/11 05:18:39;;;;;;;8.00;7.30;;;16.00;99.90;;;;;;5062234;28;20520;-75
2023/09/11 05:21:06;;;;;;;8.83;7.27;;;16.10;99.90;;;;;;5069078;28;20478;-75
2023/09/11 05:23:33;;;;;;;7.10;6.07;;;16.10;99.90;;;;;;5062366;28;20965;-75
2023/09/11 05:25:59;;;;;;;7.53;6.83;;;16.10;99.90;;;;;;5058974;28;20494;-78
2023/09/11 05:28:26;;;;;;;6.70;6.10;;;16.20;99.90;;;;;;5066005;28;20565;-74
2023/09/11 05:30:55;;;;;;;7.60;6.90;;;16.20;99.90;;;;;;5067330;28;20444;-75
2023/09/11 05:33:22;;;;;;;7.30;5.97;;;16.30;99.90;;;;;;5067227;28;20965;-75
2023/09/11 05:35:49;;;;;;;7.13;6.40;;;16.40;99.90;;;;;;5066219;28;21158;-76
2023/09/11 05:38:16;;;;;;;11.23;7.07;;;16.50;99.90;;;;;;5066779;28;21039;-79
2023/09/11 05:40:43;;;;;;;7.70;7.10;;;16.40;99.90;;;;;;5064249;28;20451;-77
2023/09/11 05:43:10;;;;;;;7.70;7.07;;;16.50;99.90;;;;;;5065412;28;20471;-77
2023/09/11 05:45:37;;;;;;;6.50;5.50;;;16.70;99.90;;;;;;5067841;28;20462;-74
2023/09/11 05:48:11;;;;;;;8.57;7.33;;;16.70;99.90;;;;;;5068981;28;20548;-74
2023/09/11 05:50:37;;;;;;;7.57;6.87;;;16.90;99.90;;;;;;5058729;28;20570;-76
2023/09/11 05:53:06;;;;;;;8.40;6.93;;;17.00;99.90;;;;;;5063396;28;20871;-79
2023/09/11 05:55:33;;;;;;;5.77;5.20;;;17.10;99.90;;;;;;5064236;28;20451;-76
2023/09/11 05:58:00;;;;;;;6.00;5.50;;;17.20;99.90;;;;;;5066187;28;20940;-76
2023/09/11 06:00:27;;;;;;;6.83;6.23;;;17.20;99.90;;;;;;5067543;28;20966;-79
2023/09/11 06:02:55;;;;;;;6.50;5.90;;;17.20;99.90;;;;;;5065167;28;20532;-76
2023/09/11 06:05:23;;;;;;;6.20;5.70;;;17.30;99.90;;;;;;5062866;28;20544;-79
2023/09/11 06:07:50;;;;;;;7.40;6.70;;;17.60;99.90;;;;;;5062099;28;20444;-76
2023/09/11 06:10:17;;;;;;;7.77;5.80;;;17.60;99.90;;;;;;5062566;28;20554;-76
2023/09/11 06:12:44;;;;;;;6.20;5.60;;;17.60;99.90;;;;;;5062820;28;20526;-75
2023/09/11 06:15:11;;;;;;;7.47;6.83;;;17.70;99.90;;;;;;5052832;28;20492;-76
2023/09/11 06:17:38;;;;;;;6.77;6.07;;;17.80;99.90;;;;;;5061220;28;20997;-76
2023/09/11 06:20:09;;;;;;;6.57;5.97;;;17.90;99.90;;;;;;5062020;28;20444;-76
2023/09/11 06:22:37;;;;;;;17.50;6.40;;;18.00;99.90;;;;;;5053893;28;20452;-76
2023/09/11 06:25:05;;;;;;;6.60;5.90;;;18.00;99.90;;;;;;5065448;28;20795;-76
2023/09/11 06:27:34;;;;;;;6.53;6.03;;;18.10;99.90;;;;;;5062172;28;20463;-77
2023/09/11 06:30:05;;;;;;;8.03;7.27;;;18.30;99.90;;;;;;5056521;28;20514;-76
2023/09/11 06:32:35;;;;;;;7.03;6.33;;;18.50;99.90;;;;;;5061414;28;20472;-76
2023/09/11 06:35:04;;;;;;;7.10;6.43;;;18.50;99.90;;;;;;5066020;28;20443;-76
2023/09/11 06:37:31;;;;;;;6.67;6.17;;;18.60;99.90;;;;;;5064090;28;20458;-76
2023/09/11 06:39:59;;;;;;;7.43;6.73;;;18.90;99.90;;;;;;5066702;28;20503;-76
2023/09/11 06:42:26;;;;;;;5.53;5.13;;;19.00;99.90;;;;;;5067833;28;21076;-75
2023/09/11 06:44:54;;;;;;;6.30;5.70;;;19.10;99.90;;;;;;5064790;28;20556;-78
2023/09/11 06:47:21;;;;;;;6.13;5.63;;;19.20;99.90;;;;;;5067513;28;20480;-77
2023/09/11 06:49:48;;;;;;;8.80;6.77;;;19.40;99.90;;;;;;5065998;28;20527;-77
2023/09/11 06:52:16;;;;;;;6.30;5.80;;;19.50;99.90;;;;;;5066669;28;20450;-76
2023/09/11 06:54:43;;;;;;;8.60;7.30;;;19.60;99.90;;;;;;5066740;28;20531;-75
2023/09/11 06:57:14;;;;;;;6.70;6.00;;;19.60;99.90;;;;;;5065027;28;20443;-76
2023/09/11 06:59:41;;;;;;;9.20;6.73;;;19.90;99.90;;;;;;5060219;28;20449;-75
2023/09/11 07:02:09;;;;;;;5.70;5.13;;;19.90;99.90;;;;;;5066071;28;20954;-76
2023/09/11 07:04:36;;;;;;;6.77;6.13;;;19.90;99.90;;;;;;5059400;28;20894;-77
2023/09/11 07:07:02;;;;;;;6.63;5.83;;;20.20;99.90;;;;;;5054709;28;20520;-77
2023/09/11 07:09:29;;;;;;;6.70;5.67;;;20.30;99.90;;;;;;5066763;28;20573;-76
2023/09/11 07:11:57;;;;;;;10.13;6.33;;;20.10;99.90;;;;;;5056374;28;20558;-76
2023/09/11 07:14:25;;;;;;;6.03;4.97;;;20.10;99.90;;;;;;5075847;28;20530;-77
2023/09/11 07:16:52;;;;;;;7.80;7.10;;;20.10;99.90;;;;;;5058296;28;20452;-77
2023/09/11 07:19:22;;;;;;;7.37;6.47;;;20.20;99.90;;;;;;5057938;28;20511;-74
2023/09/11 07:21:49;;;;;;;6.27;5.77;;;20.20;99.90;;;;;;5059848;28;20440;-77
2023/09/11 07:24:16;;;;;;;6.43;5.93;;;20.30;99.90;;;;;;5060297;28;20497;-77
2023/09/11 07:26:43;;;;;;;6.50;5.83;;;20.40;99.90;;;;;;5057966;28;20475;-78
2023/09/11 07:29:10;;;;;;;7.27;6.63;;;20.40;99.90;;;;;;5061818;28;20475;-79
2023/09/11 07:31:38;;;;;;;7.40;6.80;;;20.60;99.90;;;;;;5066909;28;20471;-76
2023/09/11 07:34:05;;;;;;;5.70;5.20;;;20.60;99.90;;;;;;5059847;28;20865;-77
2023/09/11 07:36:32;;;;;;;7.10;6.40;;;20.70;99.90;;;;;;5066802;28;20467;-77
2023/09/11 07:38:59;;;;;;;7.30;6.60;;;21.00;99.90;;;;;;5066971;28;20537;-77
2023/09/11 07:41:28;;;;;;;7.83;5.83;;;21.00;99.90;;;;;;5066523;28;21004;-79
2023/09/11 07:43:54;;;;;;;5.20;4.90;;;21.10;99.90;;;;;;5066116;28;20466;-77
2023/09/11 07:46:24;;;;;;;6.83;6.13;;;21.00;99.90;;;;;;5066565;28;20436;-77
2023/09/11 07:48:52;;;;;;;6.57;6.07;;;21.10;99.90;;;;;;5066328;28;20487;-78
2023/09/11 07:51:19;;;;;;;7.80;5.67;;;21.20;99.90;;;;;;5062963;28;20500;-77
2023/09/11 07:53:46;;;;;;;7.60;6.90;;;21.20;99.90;;;;;;5059507;28;20448;-77
2023/09/11 07:56:13;;;;;;;7.10;6.03;;;21.20;99.90;;;;;;5062633;28;21083;-76
2023/09/11 07:58:40;;;;;;;7.53;6.90;;;21.40;99.90;;;;;;5060364;28;21162;-76
2023/09/11 08:01:07;;;;;;;14.70;6.83;;;21.50;99.90;;;;;;5059440;28;21213;-76
2023/09/11 08:03:35;;;;;;;7.30;6.30;;;21.50;99.90;;;;;;5055957;28;20461;-77
2023/09/11 08:06:04;;;;;;;8.43;6.77;;;21.70;99.90;;;;;;5065621;28;20491;-76
2023/09/11 08:08:31;;;;;;;9.33;6.30;;;21.90;99.90;;;;;;5058862;28;20490;-78
2023/09/11 08:10:58;;;;;;;7.37;6.50;;;21.90;99.90;;;;;;5056003;28;20487;-80
2023/09/11 08:13:25;;;;;;;7.17;6.57;;;22.00;99.90;;;;;;5057456;28;20544;-79
2023/09/11 08:15:52;;;;;;;6.27;5.67;;;22.00;99.90;;;;;;5057225;28;20557;-80
2023/09/11 08:18:21;;;;;;;7.53;6.93;;;22.20;99.90;;;;;;5061587;28;20472;-77
2023/09/11 08:20:49;;;;;;;9.70;6.30;;;22.00;99.90;;;;;;5064042;28;21026;-78
2023/09/11 08:23:18;;;;;;;9.00;6.03;;;22.00;99.90;;;;;;5065740;28;20543;-76
2023/09/11 08:25:46;;;;;;;12.63;7.40;;;22.00;99.90;;;;;;5060738;28;20460;-76
2023/09/11 08:28:13;;;;;;;7.90;5.73;;;22.10;99.90;;;;;;5063480;28;20937;-76
2023/09/11 08:30:40;;;;;;;6.60;5.90;;;22.30;99.90;;;;;;5066046;28;20540;-77
2023/09/11 08:33:07;;;;;;;7.57;6.63;;;22.50;99.90;;;;;;5069552;28;20468;-76
2023/09/11 08:35:34;;;;;;;8.13;6.13;;;22.50;99.90;;;;;;5066174;28;20440;-76
2023/09/11 08:38:01;;;;;;;7.20;5.10;;;22.40;99.90;;;;;;5070057;28;20468;-76
2023/09/11 08:40:31;;;;;;;6.33;5.70;;;22.60;99.90;;;;;;5070383;28;20448;-79
2023/09/11 08:42:59;;;;;;;10.77;7.40;;;22.70;99.90;;;;;;5065803;28;20510;-77
2023/09/11 08:45:26;;;;;;;7.30;6.60;;;22.60;99.90;;;;;;5061445;28;20544;-78
2023/09/11 08:47:56;;;;;;;14.00;7.17;;;23.00;99.90;;;;;;5070678;28;20522;-76
2023/09/11 08:50:26;;;;;;;6.60;5.13;;;22.80;99.90;;;;;;5070469;28;20527;-80
2023/09/11 08:52:56;;;;;;;10.20;9.00;;;23.10;99.90;;;;;;5066731;28;20564;-76
2023/09/11 08:55:26;;;;;;;8.80;6.13;;;23.30;99.90;;;;;;5069275;28;20444;-77
2023/09/11 08:57:56;;;;;;;8.97;7.67;;;23.40;99.90;;;;;;5060643;28;20553;-78
2023/09/11 09:00:25;;;;;;;8.40;6.43;;;23.40;99.90;;;;;;5068922;28;20938;-80
2023/09/11 09:02:52;;;;;;;9.10;6.80;;;23.50;99.90;;;;;;5068051;28;20904;-77
2023/09/11 09:05:21;;;;;;;14.63;5.87;;;23.40;99.90;;;;;;5066097;28;20528;-80
2023/09/11 09:07:49;;;;;;;21.40;6.97;;;23.60;99.90;;;;;;5069703;28;20509;-76
2023/09/11 09:10:17;;;;;;;8.80;6.77;;;23.70;99.90;;;;;;5055625;28;20970;-78
2023/09/11 09:12:45;;;;;;;9.50;6.13;;;23.90;99.90;;;;;;5059940;28;20443;-77
2023/09/11 09:15:15;;;;;;;10.00;6.30;;;23.90;99.90;;;;;;5064480;28;20982;-77
2023/09/11 09:17:42;;;;;;;8.33;7.43;;;23.90;99.90;;;;;;5060899;28;20488;-76
2023/09/11 09:20:11;;;;;;;8.73;6.20;;;24.20;99.90;;;;;;5060580;28;20482;-76
2023/09/11 09:22:54;;;;;;;14.33;7.23;;;24.40;99.90;;;;;;5065583;28;20551;-76
2023/09/11 09:25:22;;;;;;;9.33;6.40;;;24.50;99.90;;;;;;5064983;28;20459;-79
2023/09/11 09:27:49;;;;;;;7.33;5.80;;;24.80;99.90;;;;;;5066048;28;20608;-81
2023/09/11 09:30:21;;;;;;;9.13;6.17;;;24.50;99.90;;;;;;5076159;28;20483;-77
2023/09/11 09:32:48;;;;;;;14.07;6.77;;;24.80;99.90;;;;;;5066837;28;20576;-80
2023/09/11 09:35:17;;;;;;;8.93;5.83;;;25.00;99.90;;;;;;5057362;28;21043;-78
2023/09/11 09:37:50;;;;;;;8.80;5.53;;;24.80;99.90;;;;;;5058438;28;20578;-79
2023/09/11 09:40:29;;;;;;;6.80;6.17;;;24.90;99.90;;;;;;5068649;28;20915;-78
2023/09/11 09:42:58;;;;;;;7.60;5.33;;;25.00;99.90;;;;;;5069921;28;20459;-75
2023/09/11 09:45:33;;;;;;;7.40;6.00;;;25.20;99.90;;;;;;5068957;28;20464;-79
2023/09/11 09:48:07;;;;;;;9.20;6.50;;;25.60;99.90;;;;;;5068719;28;20486;-77
2023/09/11 09:50:57;;;;;;;7.70;6.90;;;25.70;99.90;;;;;;5071571;28;20578;-77
2023/09/11 09:53:28;;;;;;;9.47;5.90;;;25.60;99.90;;;;;;5064942;28;20449;-77
2023/09/11 09:55:58;;;;;;;8.23;5.83;;;25.60;99.90;;;;;;5072664;28;21233;-80
2023/09/11 09:58:28;;;;;;;6.90;6.13;;;25.50;99.90;;;;;;5067720;28;20491;-76
2023/09/11 10:01:01;;;;;;;11.17;6.20;;;25.70;99.90;;;;;;5064887;28;20443;-76
2023/09/11 10:03:30;;;;;;;6.33;5.80;;;25.60;99.90;;;;;;5062935;28;20547;-78
2023/09/11 10:05:58;;;;;;;8.03;6.40;;;25.70;99.90;;;;;;5077538;28;20466;-77
2023/09/11 10:08:25;;;;;;;8.27;6.27;;;25.80;99.90;;;;;;5078862;28;20483;-77
2023/09/11 10:10:52;;;;;;;6.77;5.90;;;25.70;99.90;;;;;;5070178;28;20475;-77
2023/09/11 10:13:19;;;;;;;5.07;4.63;;;25.70;99.90;;;;;;5064565;28;20548;-77
2023/09/11 10:15:46;;;;;;;6.87;6.27;;;26.00;99.90;;;;;;5064228;28;20492;-79
2023/09/11 10:18:14;;;;;;;5.83;5.30;;;26.10;99.90;;;;;;5062372;28;21044;-77
2023/09/11 10:20:41;;;;;;;14.43;6.17;;;26.00;99.90;;;;;;5058148;28;20545;-76
2023/09/11 10:23:09;;;;;;;8.47;6.40;;;25.90;99.90;;;;;;5056387;28;20455;-76
2023/09/11 10:25:40;;;;;;;6.30;5.23;;;26.00;99.90;;;;;;5066832;28;20476;-77
2023/09/11 10:28:08;;;;;;;9.70;6.07;;;26.20;99.90;;;;;;5064676;28;20467;-77
2023/09/11 10:30:45;;;;;;;6.77;6.17;;;26.10;99.90;;;;;;5061072;28;20914;-80
2023/09/11 10:33:21;;;;;;;6.63;6.13;;;26.40;99.90;;;;;;5054139;28;20456;-75
2023/09/11 10:35:56;;;;;;;6.40;5.80;;;26.60;99.90;;;;;;5059555;28;20475;-77
2023/09/11 10:38:23;;;;;;;7.00;6.40;;;26.50;99.90;;;;;;5066616;28;20525;-76
2023/09/11 10:40:54;;;;;;;7.00;6.40;;;26.30;99.90;;;;;;5066763;28;20452;-76
2023/09/11 10:43:22;;;;;;;8.63;7.87;;;26.40;99.90;;;;;;5072222;28;20487;-77
2023/09/11 10:45:49;;;;;;;7.13;6.27;;;26.50;99.90;;;;;;5060435;28;20528;-77
2023/09/11 10:48:31;;;;;;;6.83;6.23;;;26.40;99.90;;;;;;5066933;28;20826;-78
2023/09/11 10:50:59;;;;;;;6.17;5.67;;;26.50;99.90;;;;;;5066967;28;20487;-77
2023/09/11 10:53:28;;;;;;;5.50;5.00;;;26.60;99.90;;;;;;5069283;28;21223;-80
2023/09/11 10:55:57;;;;;;;7.63;6.03;;;26.50;99.90;;;;;;5070558;28;20520;-81
2023/09/11 10:58:28;;;;;;;6.37;5.13;;;26.70;99.90;;;;;;5057658;28;21061;-77
2023/09/11 11:00:55;;;;;;;6.50;5.93;;;26.90;99.90;;;;;;5065622;28;20458;-76
2023/09/11 11:03:25;;;;;;;5.70;5.30;;;27.10;99.90;;;;;;5064642;28;20463;-77
2023/09/11 11:05:55;;;;;;;6.40;4.80;;;27.20;99.90;;;;;;5063873;28;20460;-81
2023/09/11 11:08:22;;;;;;;6.60;6.10;;;27.30;99.90;;;;;;5065876;28;20543;-77
2023/09/11 11:10:52;;;;;;;5.20;4.80;;;27.40;99.90;;;;;;5065551;28;20568;-81
2023/09/11 11:13:20;;;;;;;5.23;4.83;;;27.20;99.90;;;;;;5067796;28;20487;-78
2023/09/11 11:15:47;;;;;;;13.93;6.30;;;27.50;99.90;;;;;;5061701;28;20492;-77
2023/09/11 11:18:16;;;;;;;6.77;6.03;;;27.50;99.90;;;;;;5063736;28;20481;-81
2023/09/11 11:21:06;;;;;;;6.63;5.37;;;27.50;99.90;;;;;;5061923;28;20471;-75
2023/09/11 11:23:35;;;;;;;7.90;5.53;;;27.70;99.90;;;;;;5063665;28;20520;-77
2023/09/11 11:26:04;;;;;;;7.13;6.27;;;27.80;99.90;;;;;;5064623;28;20448;-77
2023/09/11 11:28:39;;;;;;;5.53;5.03;;;27.90;99.90;;;;;;5066251;28;20551;-80
2023/09/11 11:31:08;;;;;;;5.73;5.33;;;28.00;99.60;;;;;;5063034;28;20520;-78
2023/09/11 11:33:37;;;;;;;6.97;6.37;;;27.80;99.20;;;;;;5066408;28;20452;-78
2023/09/11 11:36:08;;;;;;;5.27;4.73;;;27.70;99.90;;;;;;5068519;28;20527;-77
2023/09/11 11:38:36;;;;;;;10.00;5.93;;;27.60;99.90;;;;;;5068785;28;20459;-78
2023/09/11 11:41:04;;;;;;;6.10;5.60;;;27.70;99.90;;;;;;5070824;28;20496;-78
2023/09/11 11:43:31;;;;;;;7.27;6.60;;;27.80;99.90;;;;;;5064959;28;20513;-77
2023/09/11 11:45:58;;;;;;;5.83;5.33;;;28.00;99.90;;;;;;5066316;28;20460;-79
2023/09/11 11:48:27;;;;;;;6.10;5.57;;;28.00;99.90;;;;;;5064576;28;20517;-86
2023/09/11 11:50:55;;;;;;;5.93;5.43;;;28.00;99.90;;;;;;5065478;28;20513;-80
2023/09/11 11:53:25;;;;;;;7.23;5.17;;;28.20;99.90;;;;;;5067422;28;20560;-79
2023/09/11 11:55:55;;;;;;;5.53;5.03;;;28.10;99.10;;;;;;5065164;28;21252;-81
2023/09/11 11:58:22;;;;;;;6.43;5.00;;;28.30;99.90;;;;;;5061352;28;20460;-82
2023/09/11 12:01:00;;;;;;;8.43;5.53;;;28.40;99.90;;;;;;5072808;28;20541;-80
2023/09/11 12:03:28;;;;;;;6.60;6.00;;;28.40;98.00;;;;;;5061401;28;20468;-78
2023/09/11 12:05:55;;;;;;;5.73;5.23;;;28.50;99.70;;;;;;5063934;28;20455;-79
2023/09/11 12:08:24;;;;;;;5.03;4.57;;;28.70;98.90;;;;;;5059412;28;20467;-80
2023/09/11 12:10:51;;;;;;;5.20;4.80;;;28.60;98.60;;;;;;5064490;28;20494;-76
2023/09/11 12:13:19;;;;;;;5.00;4.50;;;28.40;97.10;;;;;;5059858;28;20490;-76
2023/09/11 12:15:52;;;;;;;5.27;4.93;;;28.50;97.40;;;;;;5058627;28;20505;-77
2023/09/11 12:18:19;;;;;;;5.83;5.37;;;28.70;98.40;;;;;;5059416;28;20518;-78
2023/09/11 12:20:54;;;;;;;5.47;5.07;;;28.60;96.70;;;;;;5063299;28;20552;-79
2023/09/11 12:23:21;;;;;;;5.43;5.00;;;28.70;97.40;;;;;;5056818;28;20484;-76
2023/09/11 12:25:50;;;;;;;6.43;5.70;;;28.80;97.10;;;;;;5064428;28;20560;-78
2023/09/11 12:28:17;;;;;;;5.03;4.53;;;28.90;95.40;;;;;;5058767;28;20546;-76
2023/09/11 12:30:45;;;;;;;5.97;4.70;;;28.90;94.60;;;;;;5063060;28;20510;-77
2023/09/11 12:33:14;;;;;;;5.07;4.63;;;29.30;95.30;;;;;;5055581;28;20488;-79
2023/09/11 12:35:42;;;;;;;4.90;4.60;;;29.00;95.40;;;;;;5061086;28;20464;-81
2023/09/11 12:38:10;;;;;;;4.77;4.47;;;28.60;95.40;;;;;;5057449;28;20887;-79
2023/09/11 12:40:38;;;;;;;5.00;4.70;;;28.30;96.90;;;;;;5063507;28;20547;-80
2023/09/11 12:43:06;;;;;;;4.97;4.67;;;28.60;95.80;;;;;;5065032;28;20444;-80
2023/09/11 12:45:34;;;;;;;4.97;4.47;;;28.70;96.60;;;;;;5063717;28;20460;-77
2023/09/11 12:48:02;;;;;;;5.77;5.07;;;28.60;95.10;;;;;;5062825;28;20535;-77
2023/09/11 12:50:29;;;;;;;5.50;5.10;;;28.80;96.30;;;;;;5068765;28;20487;-78
2023/09/11 12:52:56;;;;;;;5.27;4.10;;;28.90;96.00;;;;;;5057889;28;20568;-78